Time;durP1;ratioP1;P1;durP2;ratioP2;P2;SDS_P1;SDS_P2;PMS_P1;PMS_P2;Temp;Humidity;BMP_temperature;BMP_pressure;BME280_temperature;BME280_humidity;BME280_pressure;Samples;Min_cycle;Max_cycle;Signal;HPM_P1;HPM_P2
2023/04/18 00:01:45;;;;;;;8.50;7.10;;;5.60;1.00;;;;;;5095445;28;20223;-78
2023/04/18 00:04:12;;;;;;;8.60;7.03;;;5.30;54.10;;;;;;5089106;28;20654;-79
2023/04/18 00:06:38;;;;;;;7.63;6.73;;;5.20;99.90;;;;;;5099908;28;20284;-78
2023/04/18 00:09:04;;;;;;;9.80;7.10;;;5.10;1.00;;;;;;5116373;28;20195;-79
2023/04/18 00:11:30;;;;;;;8.90;6.90;;;5.00;1.00;;;;;;5077720;28;20189;-78
2023/04/18 00:13:56;;;;;;;9.13;6.90;;;5.00;1.00;;;;;;5083716;28;20174;-79
2023/04/18 00:16:22;;;;;;;10.03;7.50;;;5.00;1.00;;;;;;5101046;28;20182;-79
2023/04/18 00:18:48;;;;;;;9.20;6.70;;;5.10;1.00;;;;;;5097186;28;20176;-77
2023/04/18 00:21:15;;;;;;;8.67;6.83;;;5.20;1.00;;;;;;5097496;28;20223;-78
2023/04/18 00:23:42;;;;;;;10.03;7.87;;;5.20;1.00;;;;;;5077072;28;20180;-78
2023/04/18 00:26:07;;;;;;;9.77;7.30;;;5.30;1.00;;;;;;5094792;28;20299;-79
2023/04/18 00:28:33;;;;;;;14.93;7.33;;;5.30;1.00;;;;;;5094943;28;20261;-79
2023/04/18 00:30:59;;;;;;;11.63;7.73;;;5.30;1.00;;;;;;5076587;28;20218;-79
2023/04/18 00:33:25;;;;;;;9.13;7.53;;;5.40;1.00;;;;;;5095145;28;20547;-77
2023/04/18 00:35:50;;;;;;;9.53;8.00;;;5.50;1.00;;;;;;5076304;28;20186;-79
2023/04/18 00:38:16;;;;;;;12.93;7.57;;;5.40;1.00;;;;;;5095072;28;20267;-78
2023/04/18 00:40:42;;;;;;;10.93;7.93;;;5.40;1.00;;;;;;5094265;28;20278;-78
2023/04/18 00:43:07;;;;;;;10.97;8.03;;;5.40;1.00;;;;;;5094726;28;20175;-78
2023/04/18 00:45:33;;;;;;;9.80;8.13;;;5.50;1.00;;;;;;5076100;28;20211;-78
2023/04/18 00:47:59;;;;;;;9.27;7.27;;;5.50;1.00;;;;;;5094396;28;20187;-78
2023/04/18 00:50:25;;;;;;;12.13;7.50;;;5.60;1.00;;;;;;5094315;28;20223;-78
2023/04/18 00:52:52;;;;;;;10.73;7.67;;;5.60;1.00;;;;;;5076007;28;20169;-78
2023/04/18 00:55:18;;;;;;;12.73;8.27;;;5.70;1.00;;;;;;5076335;28;20673;-78
2023/04/18 00:57:44;;;;;;;9.43;7.80;;;5.70;1.00;;;;;;5076117;28;20175;-79
2023/04/18 01:00:11;;;;;;;12.87;7.87;;;5.60;1.00;;;;;;5075608;28;20645;-79
2023/04/18 01:02:39;;;;;;;12.13;8.23;;;5.60;1.00;;;;;;5075044;28;20178;-79
2023/04/18 01:05:05;;;;;;;11.93;8.57;;;5.70;1.00;;;;;;5075740;28;20242;-79
2023/04/18 01:07:32;;;;;;;11.87;8.73;;;5.70;1.00;;;;;;5075947;28;20175;-79
2023/04/18 01:09:59;;;;;;;12.20;9.27;;;5.70;1.00;;;;;;5075658;28;20558;-81
2023/04/18 01:12:24;;;;;;;11.47;9.20;;;5.60;1.00;;;;;;5103605;28;20200;-78
2023/04/18 01:14:50;;;;;;;9.17;7.33;;;5.70;1.00;;;;;;5105961;28;20170;-79
2023/04/18 01:17:16;;;;;;;13.80;10.13;;;5.60;1.00;;;;;;5097582;28;20184;-78
2023/04/18 01:19:41;;;;;;;16.40;11.00;;;5.60;99.90;;;;;;5114128;28;20174;-79
2023/04/18 01:22:09;;;;;;;17.40;12.40;;;5.70;99.90;;;;;;5096666;28;20279;-78
2023/04/18 01:24:35;;;;;;;17.27;11.63;;;5.80;99.90;;;;;;5114207;28;20178;-79
2023/04/18 01:27:02;;;;;;;17.87;12.53;;;5.80;99.90;;;;;;5095925;28;20645;-80
2023/04/18 01:29:27;;;;;;;18.03;12.57;;;5.90;99.90;;;;;;5096165;28;20226;-79
2023/04/18 01:31:53;;;;;;;19.77;12.63;;;6.00;99.90;;;;;;5114046;28;20189;-79
2023/04/18 01:34:18;;;;;;;17.23;12.17;;;6.00;99.90;;;;;;5105668;28;20196;-78
2023/04/18 01:36:44;;;;;;;18.90;12.30;;;6.10;99.90;;;;;;5081044;28;20178;-78
2023/04/18 01:39:11;;;;;;;17.60;12.53;;;6.00;99.90;;;;;;5114160;28;20516;-78
2023/04/18 01:41:36;;;;;;;17.47;12.13;;;6.10;99.90;;;;;;5083754;28;20243;-78
2023/04/18 01:44:02;;;;;;;18.40;12.33;;;6.10;99.90;;;;;;5075545;28;20199;-78
2023/04/18 01:46:28;;;;;;;17.03;12.03;;;6.10;99.90;;;;;;5103570;28;20188;-80
2023/04/18 01:48:55;;;;;;;16.70;12.00;;;6.10;99.90;;;;;;5093862;28;20204;-80
2023/04/18 01:51:20;;;;;;;16.20;12.00;;;6.10;99.90;;;;;;5112221;28;20202;-80
2023/04/18 01:53:46;;;;;;;17.40;12.03;;;6.20;99.90;;;;;;5114349;28;20165;-79
2023/04/18 01:56:11;;;;;;;15.17;11.57;;;6.20;99.90;;;;;;5083619;28;20178;-79
2023/04/18 01:58:37;;;;;;;16.07;11.80;;;6.20;99.90;;;;;;5075729;28;20665;-80
2023/04/18 02:01:03;;;;;;;14.87;11.17;;;6.30;99.90;;;;;;5075237;28;20212;-80
2023/04/18 02:03:28;;;;;;;14.93;11.60;;;6.30;99.90;;;;;;5093801;28;20247;-80
2023/04/18 02:05:54;;;;;;;16.10;11.90;;;6.30;99.90;;;;;;5075496;28;20201;-80
2023/04/18 02:08:20;;;;;;;14.50;11.47;;;6.30;99.90;;;;;;5093791;28;20288;-80
2023/04/18 02:10:45;;;;;;;16.83;12.60;;;6.40;99.90;;;;;;5075580;28;20192;-80
2023/04/18 02:13:11;;;;;;;14.63;11.57;;;6.40;99.90;;;;;;5075428;28;20298;-80
2023/04/18 02:15:37;;;;;;;15.97;11.57;;;6.40;99.90;;;;;;5075538;28;20199;-79
2023/04/18 02:18:02;;;;;;;14.60;11.27;;;6.40;98.80;;;;;;5083177;28;20240;-79
2023/04/18 02:20:32;;;;;;;14.50;11.00;;;6.40;61.40;;;;;;5084091;28;20225;-80
2023/04/18 02:22:59;;;;;;;13.93;10.10;;;6.40;60.40;;;;;;5109041;28;20537;-80
2023/04/18 02:25:26;;;;;;;12.80;9.70;;;6.40;43.30;;;;;;5113697;28;20287;-79
2023/04/18 02:27:53;;;;;;;13.87;10.27;;;6.40;57.80;;;;;;5113773;28;20189;-80
2023/04/18 02:30:19;;;;;;;12.67;9.73;;;6.30;42.10;;;;;;5113762;28;20173;-79
2023/04/18 02:32:44;;;;;;;14.50;9.90;;;6.40;59.50;;;;;;5095715;28;20172;-80
2023/04/18 02:35:11;;;;;;;13.00;9.80;;;6.30;67.40;;;;;;5096272;28;20175;-80
2023/04/18 02:37:37;;;;;;;12.90;9.90;;;6.30;92.00;;;;;;5095696;28;20273;-80
2023/04/18 02:40:03;;;;;;;13.60;9.23;;;6.30;99.90;;;;;;5095898;28;20198;-79
2023/04/18 02:42:29;;;;;;;13.73;9.47;;;6.20;99.90;;;;;;5095915;28;20185;-79
2023/04/18 02:44:55;;;;;;;13.20;9.77;;;6.10;99.90;;;;;;5096120;28;20179;-80
2023/04/18 02:47:20;;;;;;;12.90;9.07;;;6.10;99.90;;;;;;5114118;28;20201;-80
2023/04/18 02:49:46;;;;;;;12.00;9.00;;;6.10;99.90;;;;;;5095923;28;20171;-80
2023/04/18 02:52:11;;;;;;;12.87;9.57;;;6.00;99.90;;;;;;5095950;28;20197;-80
2023/04/18 02:54:37;;;;;;;11.57;8.87;;;6.00;99.90;;;;;;5096137;28;20173;-80
2023/04/18 02:57:03;;;;;;;11.57;8.90;;;6.00;99.90;;;;;;5096072;28;20246;-79
2023/04/18 02:59:28;;;;;;;11.07;8.77;;;6.00;99.90;;;;;;5089243;28;20177;-80
2023/04/18 03:01:54;;;;;;;12.77;9.87;;;6.00;99.90;;;;;;5082162;28;20203;-80
2023/04/18 03:04:20;;;;;;;12.40;9.17;;;5.80;99.90;;;;;;5105361;28;20627;-79
2023/04/18 03:06:46;;;;;;;12.77;9.17;;;5.80;99.90;;;;;;5096192;28;20200;-80
2023/04/18 03:09:12;;;;;;;11.10;8.83;;;5.80;99.90;;;;;;5114482;28;20168;-80
2023/04/18 03:11:37;;;;;;;14.30;8.90;;;5.70;99.90;;;;;;5114955;28;20196;-80
2023/04/18 03:14:03;;;;;;;11.93;8.73;;;5.80;99.90;;;;;;5096049;28;20163;-80
2023/04/18 03:16:29;;;;;;;12.23;9.07;;;5.80;99.90;;;;;;5096142;28;20187;-80
2023/04/18 03:18:55;;;;;;;11.17;8.33;;;5.90;99.90;;;;;;5114692;28;20257;-79
2023/04/18 03:21:20;;;;;;;10.37;8.00;;;5.80;99.90;;;;;;5114655;28;20192;-80
2023/04/18 03:23:46;;;;;;;10.83;8.40;;;5.90;99.90;;;;;;5115645;28;20165;-79
2023/04/18 03:26:12;;;;;;;10.87;8.27;;;5.80;99.90;;;;;;5100230;28;20197;-80
2023/04/18 03:28:38;;;;;;;11.03;7.80;;;5.90;99.90;;;;;;5118805;28;20181;-80
2023/04/18 03:31:04;;;;;;;10.73;8.10;;;5.90;99.90;;;;;;5118571;28;20185;-80
2023/04/18 03:33:30;;;;;;;10.33;7.80;;;5.90;99.90;;;;;;5118959;28;20168;-80
2023/04/18 03:35:55;;;;;;;11.13;7.63;;;6.00;99.90;;;;;;5100822;28;20267;-79
2023/04/18 03:38:21;;;;;;;10.10;7.57;;;6.00;99.90;;;;;;5101715;28;20533;-79
2023/04/18 03:40:47;;;;;;;9.27;7.30;;;6.00;99.90;;;;;;5100518;28;20215;-80
2023/04/18 03:43:13;;;;;;;11.43;7.83;;;6.00;99.90;;;;;;5119382;28;20168;-80
2023/04/18 03:45:39;;;;;;;9.97;7.13;;;6.10;29.70;;;;;;5118860;28;20619;-80
2023/04/18 03:48:06;;;;;;;10.97;7.90;;;6.10;93.40;;;;;;5119943;28;20165;-80
2023/04/18 03:50:31;;;;;;;8.20;6.90;;;6.10;18.60;;;;;;5100744;28;20185;-80
2023/04/18 03:52:57;;;;;;;8.77;7.00;;;6.00;1.00;;;;;;5101807;28;20166;-80
2023/04/18 03:55:25;;;;;;;8.10;6.57;;;6.00;1.00;;;;;;5119593;28;20176;-80
2023/04/18 03:57:50;;;;;;;9.10;6.90;;;5.90;1.00;;;;;;5101631;28;20217;-80
2023/04/18 04:00:16;;;;;;;8.07;6.50;;;5.90;1.00;;;;;;5119672;28;20175;-80
2023/04/18 04:02:42;;;;;;;9.10;6.33;;;5.80;1.10;;;;;;5102553;28;20204;-80
2023/04/18 04:05:08;;;;;;;8.57;6.37;;;5.80;2.90;;;;;;5098382;28;20203;-80
2023/04/18 04:07:34;;;;;;;7.63;6.10;;;5.80;1.00;;;;;;5115745;28;20175;-79
2023/04/18 04:09:59;;;;;;;8.77;6.40;;;5.70;1.00;;;;;;5097653;28;20173;-79
2023/04/18 04:12:26;;;;;;;10.10;6.40;;;5.70;7.00;;;;;;5097790;28;20728;-80
2023/04/18 04:14:51;;;;;;;7.40;6.27;;;5.70;11.80;;;;;;5097723;28;20250;-80
2023/04/18 04:17:17;;;;;;;7.80;6.23;;;5.60;5.80;;;;;;5097799;28;20189;-79
2023/04/18 04:19:43;;;;;;;7.53;6.30;;;5.50;17.30;;;;;;5115522;28;20175;-80
2023/04/18 04:22:09;;;;;;;8.93;5.90;;;5.50;28.70;;;;;;5115679;28;20194;-80
2023/04/18 04:24:37;;;;;;;7.20;6.00;;;5.50;30.90;;;;;;5097480;28;20172;-80
2023/04/18 04:27:03;;;;;;;8.17;6.23;;;5.50;17.40;;;;;;5115695;28;20287;-80
2023/04/18 04:29:29;;;;;;;8.13;5.97;;;5.40;24.20;;;;;;5115550;28;20221;-80
2023/04/18 04:31:55;;;;;;;7.10;5.77;;;5.40;60.70;;;;;;5115386;28;20192;-79
2023/04/18 04:34:20;;;;;;;7.67;5.97;;;5.30;77.60;;;;;;5097370;28;20172;-80
2023/04/18 04:36:47;;;;;;;8.20;5.93;;;5.40;94.90;;;;;;5097154;28;20233;-80
2023/04/18 04:39:19;;;;;;;7.80;5.70;;;5.40;85.20;;;;;;5096982;28;20195;-80
2023/04/18 04:41:45;;;;;;;9.17;5.77;;;5.40;74.60;;;;;;5113704;22;20238;-79
2023/04/18 04:44:11;;;;;;;6.67;5.47;;;5.40;47.80;;;;;;5099471;28;20176;-80
2023/04/18 04:46:39;;;;;;;7.97;5.80;;;5.40;73.50;;;;;;5095056;28;20193;-80
2023/04/18 04:49:04;;;;;;;6.80;5.57;;;5.40;67.00;;;;;;5094847;28;20234;-82
2023/04/18 04:51:30;;;;;;;7.43;5.67;;;5.40;67.70;;;;;;5077729;28;20192;-81
2023/04/18 04:53:56;;;;;;;6.07;5.40;;;5.40;53.10;;;;;;5094300;28;20176;-85
2023/04/18 04:56:22;;;;;;;6.80;5.53;;;5.50;46.10;;;;;;5077026;28;20169;-83
2023/04/18 04:58:48;;;;;;;6.17;5.20;;;5.50;51.50;;;;;;5076680;28;20185;-82
2023/04/18 05:01:15;;;;;;;7.43;5.87;;;5.50;42.50;;;;;;5075555;28;20234;-82
2023/04/18 05:03:41;;;;;;;8.33;5.90;;;5.50;79.40;;;;;;5075677;28;20179;-81
2023/04/18 05:06:07;;;;;;;7.40;5.67;;;5.40;99.90;;;;;;5076202;28;20201;-81
2023/04/18 05:08:32;;;;;;;8.70;5.60;;;5.40;99.90;;;;;;5075994;28;20176;-81
2023/04/18 05:10:58;;;;;;;8.53;6.27;;;5.50;99.90;;;;;;5081609;28;20287;-81
2023/04/18 05:13:23;;;;;;;7.30;6.03;;;5.40;99.90;;;;;;5084692;28;20257;-81
2023/04/18 05:15:50;;;;;;;8.23;6.00;;;5.40;99.90;;;;;;5100462;28;20179;-80
2023/04/18 05:18:16;;;;;;;9.13;7.13;;;5.50;99.90;;;;;;5094185;28;20197;-81
2023/04/18 05:20:41;;;;;;;7.47;5.63;;;5.60;99.90;;;;;;5097756;28;20603;-82
2023/04/18 05:23:07;;;;;;;8.83;6.37;;;5.60;99.90;;;;;;5084220;28;20177;-82
2023/04/18 05:25:33;;;;;;;7.97;5.80;;;5.70;99.90;;;;;;5113886;28;20211;-81
2023/04/18 05:28:03;;;;;;;8.07;5.97;;;5.70;99.90;;;;;;5097462;28;20168;-82
2023/04/18 05:30:29;;;;;;;8.87;6.27;;;5.80;99.90;;;;;;5098959;28;20165;-81
2023/04/18 05:32:55;;;;;;;7.87;6.17;;;5.90;99.90;;;;;;5098862;28;20249;-82
2023/04/18 05:35:20;;;;;;;9.07;6.57;;;5.90;99.10;;;;;;5097514;28;20177;-80
2023/04/18 05:37:46;;;;;;;8.03;6.20;;;6.00;99.90;;;;;;5097679;28;20180;-81
2023/04/18 05:40:12;;;;;;;8.10;6.00;;;6.10;96.50;;;;;;5097226;28;20205;-82
2023/04/18 05:42:38;;;;;;;11.53;6.90;;;6.10;57.50;;;;;;5096887;28;20300;-79
2023/04/18 05:45:04;;;;;;;8.87;6.90;;;6.10;93.70;;;;;;5091408;28;20260;-81
2023/04/18 05:47:29;;;;;;;8.40;6.50;;;6.20;99.90;;;;;;5060869;28;20788;-81
2023/04/18 05:49:55;;;;;;;10.33;7.23;;;6.20;99.90;;;;;;5097840;28;20173;-82
2023/04/18 05:52:21;;;;;;;10.83;7.33;;;6.20;99.90;;;;;;5088722;28;20209;-82
2023/04/18 05:54:46;;;;;;;11.33;6.97;;;6.20;99.90;;;;;;5096016;28;20602;-81
2023/04/18 05:57:12;;;;;;;11.20;7.23;;;6.30;99.90;;;;;;5078628;28;20528;-81
2023/04/18 05:59:38;;;;;;;10.43;7.43;;;6.30;99.90;;;;;;5095430;28;20190;-81
2023/04/18 06:02:03;;;;;;;9.23;6.67;;;6.40;99.90;;;;;;5094805;28;20251;-81
2023/04/18 06:04:29;;;;;;;9.13;7.20;;;6.40;99.90;;;;;;5113392;28;20724;-82
2023/04/18 06:06:55;;;;;;;9.87;7.13;;;6.40;99.90;;;;;;5113120;28;20267;-82
2023/04/18 06:09:20;;;;;;;10.60;7.73;;;6.50;99.90;;;;;;5108031;28;20234;-79
2023/04/18 06:11:46;;;;;;;10.90;7.47;;;6.50;99.90;;;;;;5107452;28;20211;-80
2023/04/18 06:14:11;;;;;;;10.83;7.77;;;6.60;99.90;;;;;;5080766;28;20184;-80
2023/04/18 06:16:37;;;;;;;10.53;7.33;;;6.70;99.90;;;;;;5099578;28;20190;-82
2023/04/18 06:19:04;;;;;;;11.27;7.20;;;6.70;99.90;;;;;;5080374;28;20184;-81
2023/04/18 06:21:30;;;;;;;11.03;6.90;;;6.70;99.90;;;;;;5076133;28;20198;-81
2023/04/18 06:23:56;;;;;;;11.97;8.03;;;6.80;99.90;;;;;;5088708;28;20260;-81
2023/04/18 06:26:21;;;;;;;10.47;7.60;;;6.80;99.90;;;;;;5115646;28;20214;-81
2023/04/18 06:28:47;;;;;;;11.13;7.50;;;6.90;99.90;;;;;;5097341;28;20206;-85
2023/04/18 06:31:12;;;;;;;9.70;7.07;;;6.90;99.90;;;;;;5112510;28;20211;-81
2023/04/18 06:33:38;;;;;;;13.17;8.83;;;7.00;99.90;;;;;;5095095;28;20220;-80
2023/04/18 06:36:04;;;;;;;11.40;7.40;;;7.10;99.90;;;;;;5094940;28;20213;-81
2023/04/18 06:38:31;;;;;;;9.87;7.47;;;7.10;99.90;;;;;;5094900;28;20179;-80
2023/04/18 06:40:56;;;;;;;11.33;7.87;;;7.10;99.90;;;;;;5112622;28;20267;-80
2023/04/18 06:43:22;;;;;;;11.20;7.50;;;7.10;99.90;;;;;;5094759;28;20218;-80
2023/04/18 06:45:48;;;;;;;11.10;8.00;;;7.10;99.90;;;;;;5108986;28;20203;-81
2023/04/18 06:48:13;;;;;;;11.10;8.00;;;7.20;99.90;;;;;;5083602;28;20687;-80
2023/04/18 06:50:39;;;;;;;11.87;8.37;;;7.30;99.90;;;;;;5094412;28;20172;-81
2023/04/18 06:53:05;;;;;;;11.87;7.93;;;7.30;99.90;;;;;;5112946;28;20550;-80
2023/04/18 06:55:30;;;;;;;11.63;8.17;;;7.50;93.00;;;;;;5094727;28;20220;-82
2023/04/18 06:57:56;;;;;;;11.43;7.67;;;7.60;99.90;;;;;;5113367;28;20245;-82
2023/04/18 07:00:21;;;;;;;12.27;8.07;;;7.60;99.90;;;;;;5098690;28;20242;-80
2023/04/18 07:02:47;;;;;;;12.53;7.40;;;7.70;94.70;;;;;;5117711;28;20202;-81
2023/04/18 07:05:13;;;;;;;9.83;6.87;;;7.80;99.90;;;;;;5116854;28;20186;-81
2023/04/18 07:07:39;;;;;;;11.80;7.50;;;8.00;53.10;;;;;;5098468;28;20185;-81
2023/04/18 07:10:05;;;;;;;9.77;7.20;;;8.20;1.00;;;;;;5098673;28;20175;-81
2023/04/18 07:12:31;;;;;;;9.80;7.20;;;8.30;1.00;;;;;;5116993;28;20195;-81
2023/04/18 07:14:56;;;;;;;9.60;6.90;;;8.50;1.00;;;;;;5116674;28;20182;-82
2023/04/18 07:17:22;;;;;;;9.40;6.40;;;8.60;1.00;;;;;;5098556;28;20176;-81
2023/04/18 07:19:48;;;;;;;7.87;6.20;;;8.80;1.00;;;;;;5098529;28;20234;-81
2023/04/18 07:22:13;;;;;;;8.43;5.73;;;8.90;1.00;;;;;;5098356;28;20226;-81
2023/04/18 07:24:39;;;;;;;6.57;5.50;;;9.00;99.90;;;;;;5116565;28;20172;-83
2023/04/18 07:27:05;;;;;;;8.87;6.30;;;8.90;99.90;;;;;;5116352;28;20199;-81
2023/04/18 07:29:31;;;;;;;9.47;6.00;;;8.90;1.00;;;;;;5116595;28;20184;-81
2023/04/18 07:31:57;;;;;;;7.47;5.50;;;8.90;1.00;;;;;;5098551;28;20755;-81
2023/04/18 07:34:24;;;;;;;6.80;5.17;;;8.90;1.00;;;;;;5116745;28;20159;-81
2023/04/18 07:36:50;;;;;;;7.90;5.30;;;8.90;99.90;;;;;;5116281;28;20161;-81
2023/04/18 07:39:16;;;;;;;7.23;5.50;;;8.90;3.10;;;;;;5116521;28;20237;-83
2023/04/18 07:41:41;;;;;;;7.23;5.53;;;9.00;99.90;;;;;;5097831;28;20225;-81
2023/04/18 07:44:07;;;;;;;7.37;5.17;;;9.00;99.90;;;;;;5116298;28;20182;-81
2023/04/18 07:46:32;;;;;;;6.80;5.20;;;9.10;1.00;;;;;;5098245;28;20224;-81
2023/04/18 07:48:58;;;;;;;6.17;5.03;;;9.10;1.00;;;;;;5098164;28;20214;-82
2023/04/18 07:51:30;;;;;;;7.10;5.20;;;9.20;1.00;;;;;;5097841;28;20250;-81
2023/04/18 07:53:55;;;;;;;7.37;4.47;;;9.30;99.90;;;;;;5116184;28;20215;-81
2023/04/18 07:56:21;;;;;;;5.97;4.40;;;9.50;1.00;;;;;;5115976;28;20604;-81
2023/04/18 07:58:47;;;;;;;6.50;4.30;;;9.60;1.00;;;;;;5115769;28;20683;-81
2023/04/18 08:01:14;;;;;;;5.50;4.50;;;9.60;1.00;;;;;;5115746;28;20607;-81
2023/04/18 08:03:40;;;;;;;5.33;4.07;;;9.60;1.00;;;;;;5116242;28;20208;-81
2023/04/18 08:06:06;;;;;;;5.47;4.53;;;9.60;99.90;;;;;;5115709;28;20197;-81
2023/04/18 08:08:31;;;;;;;5.83;4.10;;;9.60;79.40;;;;;;5115824;28;20179;-81
2023/04/18 08:10:57;;;;;;;5.50;4.60;;;9.80;99.90;;;;;;5096630;28;20226;-82
2023/04/18 08:13:22;;;;;;;5.07;3.93;;;10.20;1.00;;;;;;5097404;28;20606;-81
2023/04/18 08:15:48;;;;;;;5.57;3.93;;;10.40;99.90;;;;;;5116015;28;20209;-81
2023/04/18 08:18:13;;;;;;;5.03;3.90;;;10.50;1.00;;;;;;5097317;28;20263;-80
2023/04/18 08:20:39;;;;;;;4.23;3.60;;;10.70;1.00;;;;;;5097207;28;20186;-81
2023/04/18 08:23:06;;;;;;;4.60;3.73;;;11.00;99.90;;;;;;5115393;28;20206;-81
2023/04/18 08:25:32;;;;;;;4.77;3.90;;;11.20;14.00;;;;;;5115137;28;20200;-81
2023/04/18 08:27:57;;;;;;;3.73;3.33;;;11.50;99.90;;;;;;5115633;28;20259;-81
2023/04/18 08:30:23;;;;;;;4.63;3.57;;;11.50;99.90;;;;;;5097220;28;20175;-81
2023/04/18 08:32:49;;;;;;;4.10;3.60;;;11.60;1.00;;;;;;5097272;28;20202;-79
2023/04/18 08:35:15;;;;;;;4.93;4.00;;;11.50;1.00;;;;;;5097366;28;20185;-81
2023/04/18 08:37:40;;;;;;;4.43;3.67;;;11.40;99.90;;;;;;5097235;28;20168;-81
2023/04/18 08:40:06;;;;;;;4.77;3.47;;;11.30;99.90;;;;;;5096887;28;20206;-81
2023/04/18 08:42:32;;;;;;;4.77;3.87;;;11.20;1.00;;;;;;5096866;28;20207;-81
2023/04/18 08:44:59;;;;;;;4.17;3.77;;;11.10;1.00;;;;;;5097017;28;20175;-83
2023/04/18 08:47:28;;;;;;;4.40;3.70;;;10.90;99.90;;;;;;5096989;28;20203;-81
2023/04/18 08:49:55;;;;;;;4.07;3.63;;;11.00;1.00;;;;;;5114688;28;20195;-81
2023/04/18 08:52:22;;;;;;;5.10;3.80;;;10.90;1.00;;;;;;5096590;28;20196;-81
2023/04/18 08:54:49;;;;;;;4.40;3.60;;;10.90;1.00;;;;;;5115193;28;20551;-81
2023/04/18 08:57:27;;;;;;;4.50;3.67;;;10.90;1.00;;;;;;5095938;28;20176;-79
2023/04/18 08:59:53;;;;;;;3.80;3.40;;;10.80;1.00;;;;;;5114207;28;20172;-78
2023/04/18 09:02:20;;;;;;;4.10;3.60;;;10.90;1.00;;;;;;5095898;28;20245;-79
2023/04/18 09:04:51;;;;;;;4.07;3.67;;;10.90;1.00;;;;;;5095916;28;20725;-79
2023/04/18 09:07:35;;;;;;;3.60;3.23;;;10.90;1.00;;;;;;5095851;28;20226;-79
2023/04/18 09:10:01;;;;;;;4.43;3.67;;;10.90;49.40;;;;;;5095732;28;20259;-81
2023/04/18 09:12:28;;;;;;;4.00;3.50;;;11.00;1.00;;;;;;5095641;28;20319;-79
2023/04/18 09:14:59;;;;;;;4.70;3.93;;;11.10;1.00;;;;;;5113680;28;20179;-80
2023/04/18 09:17:34;;;;;;;4.70;3.70;;;11.40;99.90;;;;;;5114169;28;20201;-79
2023/04/18 09:20:03;;;;;;;6.03;3.50;;;11.70;1.00;;;;;;5113979;28;20171;-79
2023/04/18 09:22:46;;;;;;;3.93;3.40;;;12.10;1.00;;;;;;5112725;28;20191;-79
2023/04/18 09:25:43;;;;;;;3.60;3.30;;;12.20;99.90;;;;;;5095579;28;20194;-79
2023/04/18 09:28:31;;;;;;;3.67;3.30;;;12.20;99.90;;;;;;5114075;28;20240;-81
2023/04/18 09:31:07;;;;;;;3.90;3.50;;;12.70;1.00;;;;;;5114360;28;20196;-81
2023/04/18 09:33:33;;;;;;;3.73;3.33;;;13.20;1.00;;;;;;5114293;28;20669;-80
2023/04/18 09:36:27;;;;;;;4.33;3.23;;;13.40;1.00;;;;;;5114160;28;20254;-81
2023/04/18 09:38:54;;;;;;;4.27;3.13;;;13.20;1.00;;;;;;5114621;28;20664;-81
2023/04/18 09:41:21;;;;;;;3.80;3.10;;;13.00;1.00;;;;;;5114187;28;20253;-81
2023/04/18 09:43:47;;;;;;;3.53;3.20;;;12.80;1.00;;;;;;5114186;28;20160;-83
2023/04/18 09:46:13;;;;;;;3.40;3.07;;;12.60;4.90;;;;;;5115128;28;20743;-81
2023/04/18 09:48:40;;;;;;;4.03;3.63;;;12.20;11.50;;;;;;5096434;28;20187;-80
2023/04/18 09:51:08;;;;;;;4.00;3.50;;;12.00;99.90;;;;;;5114182;28;20189;-80
2023/04/18 09:53:38;;;;;;;4.30;3.47;;;12.00;99.90;;;;;;5108192;28;20702;-81
2023/04/18 09:56:07;;;;;;;4.27;3.87;;;11.80;99.90;;;;;;5108341;28;20255;-82
2023/04/18 09:58:36;;;;;;;4.60;3.77;;;11.80;99.90;;;;;;5110607;28;20180;-81
2023/04/18 10:01:02;;;;;;;4.47;3.87;;;11.70;99.90;;;;;;5108575;28;20203;-82
2023/04/18 10:03:36;;;;;;;4.70;3.97;;;11.70;99.90;;;;;;5087941;28;20195;-82
2023/04/18 10:06:03;;;;;;;4.70;3.77;;;11.70;99.90;;;;;;5108233;28;20194;-80
2023/04/18 10:08:28;;;;;;;4.40;3.93;;;11.80;99.90;;;;;;5094763;28;20173;-80
2023/04/18 10:10:56;;;;;;;4.10;3.70;;;11.70;1.00;;;;;;5074128;28;20258;-80
2023/04/18 10:13:23;;;;;;;4.63;4.10;;;11.80;1.00;;;;;;5072084;28;20206;-79
2023/04/18 10:15:51;;;;;;;4.77;4.27;;;12.00;99.90;;;;;;5088480;28;20172;-79
2023/04/18 10:18:22;;;;;;;5.10;4.60;;;12.20;99.90;;;;;;5100987;28;20203;-78
2023/04/18 10:20:47;;;;;;;5.30;4.33;;;12.80;1.00;;;;;;5092970;28;20629;-78
2023/04/18 10:23:33;;;;;;;6.23;4.73;;;13.00;1.00;;;;;;5093100;28;20203;-79
2023/04/18 10:25:59;;;;;;;5.70;4.97;;;13.40;99.90;;;;;;5074197;28;20552;-79
2023/04/18 10:28:26;;;;;;;5.20;4.70;;;13.60;1.00;;;;;;5092599;28;20180;-79
2023/04/18 10:31:02;;;;;;;5.50;4.60;;;14.00;99.90;;;;;;5083068;28;20271;-80
2023/04/18 10:33:46;;;;;;;6.57;5.17;;;14.20;99.90;;;;;;5114251;28;20201;-81
2023/04/18 10:36:15;;;;;;;6.20;5.60;;;14.00;99.90;;;;;;5099615;28;20178;-81
2023/04/18 10:38:46;;;;;;;6.00;5.20;;;13.70;99.90;;;;;;5100257;28;20179;-81
2023/04/18 10:41:14;;;;;;;6.93;5.73;;;13.80;99.90;;;;;;5141427;22;20207;-78
2023/04/18 10:44:05;;;;;;;6.80;5.60;;;13.60;99.90;;;;;;5076326;28;20193;-83
2023/04/18 10:46:31;;;;;;;8.10;6.00;;;13.70;99.90;;;;;;5096903;28;20257;-83
2023/04/18 10:49:18;;;;;;;6.57;5.70;;;13.30;99.90;;;;;;5095585;28;20642;-82
2023/04/18 10:51:45;;;;;;;8.90;6.57;;;13.30;99.90;;;;;;5094436;28;20660;-82
2023/04/18 10:54:18;;;;;;;8.53;6.40;;;13.30;99.90;;;;;;5093586;28;20172;-85
2023/04/18 10:56:54;;;;;;;9.10;6.33;;;13.60;99.90;;;;;;5076210;28;20197;-86
2023/04/18 10:59:22;;;;;;;8.30;6.30;;;14.20;99.90;;;;;;5076250;28;20172;-86
2023/04/18 11:01:53;;;;;;;8.50;6.50;;;14.80;99.90;;;;;;5093483;28;20192;-88
2023/04/18 11:04:19;;;;;;;8.50;6.97;;;14.60;1.00;;;;;;5093263;28;20202;-89
2023/04/18 11:06:49;;;;;;;9.60;6.90;;;14.70;14.30;;;;;;5095779;28;20208;-88
2023/04/18 11:09:15;;;;;;;8.53;7.07;;;15.00;3.20;;;;;;5082628;28;20532;-88
2023/04/18 11:11:42;;;;;;;8.83;7.40;;;15.30;99.90;;;;;;5074036;28;20702;-88
2023/04/18 11:14:08;;;;;;;8.63;7.10;;;15.20;1.00;;;;;;5079181;28;20241;-89
2023/04/18 11:16:34;;;;;;;8.30;6.67;;;15.20;1.00;;;;;;5077361;28;20209;-89
2023/04/18 11:18:59;;;;;;;8.50;7.20;;;15.20;1.00;;;;;;5081757;28;20207;-88
2023/04/18 11:21:28;;;;;;;9.37;7.50;;;15.00;1.00;;;;;;5090918;28;20277;-88
2023/04/18 11:23:55;;;;;;;8.87;7.27;;;15.30;1.00;;;;;;5086959;28;20219;-88
2023/04/18 11:26:27;;;;;;;9.37;7.67;;;15.60;1.00;;;;;;5073977;28;20260;-88
2023/04/18 11:28:57;;;;;;;9.03;7.57;;;15.40;1.00;;;;;;5074047;28;20192;-88
2023/04/18 11:31:23;;;;;;;8.93;7.37;;;15.20;1.00;;;;;;5073856;28;20229;-88
2023/04/18 11:33:55;;;;;;;10.07;7.90;;;15.50;1.00;;;;;;5074348;28;20546;-89
2023/04/18 11:36:20;;;;;;;8.20;7.17;;;15.60;1.00;;;;;;5090828;28;20187;-88
2023/04/18 11:38:46;;;;;;;10.23;8.40;;;15.90;1.00;;;;;;5092276;28;20560;-89
2023/04/18 11:41:15;;;;;;;9.17;8.13;;;15.70;1.00;;;;;;5073965;28;20169;-88
2023/04/18 11:43:43;;;;;;;8.50;7.60;;;15.10;1.00;;;;;;5091986;28;20194;-88
2023/04/18 11:46:08;;;;;;;8.50;7.43;;;15.20;1.00;;;;;;5094638;28;20196;-88
2023/04/18 11:48:38;;;;;;;8.50;7.47;;;15.60;1.00;;;;;;5079484;28;20179;-87
2023/04/18 11:51:28;;;;;;;9.53;7.77;;;15.60;1.00;;;;;;5077119;28;20650;-88
2023/04/18 11:53:53;;;;;;;8.20;7.40;;;15.40;1.00;;;;;;5077452;28;20279;-89
2023/04/18 11:56:19;;;;;;;9.27;7.37;;;14.70;1.00;;;;;;5077637;28;20595;-88
2023/04/18 11:58:45;;;;;;;8.57;7.30;;;14.60;56.50;;;;;;5095377;28;20165;-88
2023/04/18 12:01:22;;;;;;;8.20;7.30;;;14.70;48.30;;;;;;5076981;28;20550;-88
2023/04/18 12:04:01;;;;;;;9.63;7.47;;;14.60;99.90;;;;;;5094159;28;20179;-88
2023/04/18 12:06:28;;;;;;;8.43;7.53;;;14.40;2.50;;;;;;5077079;28;20203;-88
2023/04/18 12:08:59;;;;;;;9.03;7.60;;;14.00;99.90;;;;;;5077498;28;20258;-87
2023/04/18 12:11:25;;;;;;;9.93;8.20;;;13.90;99.90;;;;;;5077403;28;20192;-87
2023/04/18 12:13:55;;;;;;;9.00;7.40;;;13.80;99.90;;;;;;5095551;28;20222;-87
2023/04/18 12:16:26;;;;;;;10.13;8.50;;;13.80;99.90;;;;;;5095583;28;20260;-88
2023/04/18 12:18:59;;;;;;;7.90;7.10;;;13.50;99.90;;;;;;5095220;28;20177;-88
2023/04/18 12:21:28;;;;;;;9.50;8.27;;;13.50;1.00;;;;;;5094449;28;20241;-87
2023/04/18 12:23:54;;;;;;;11.00;8.20;;;13.40;99.90;;;;;;5077261;28;20271;-87
2023/04/18 12:26:22;;;;;;;11.03;8.40;;;13.20;1.00;;;;;;5095490;28;20285;-86
2023/04/18 12:28:52;;;;;;;10.20;8.50;;;13.20;1.00;;;;;;5077170;28;20172;-86
2023/04/18 12:31:20;;;;;;;9.80;8.37;;;13.20;1.00;;;;;;5076481;28;20225;-86
2023/04/18 12:33:45;;;;;;;9.40;8.23;;;13.10;1.00;;;;;;5095009;28;20678;-87
2023/04/18 12:36:11;;;;;;;9.87;7.90;;;13.10;1.00;;;;;;5094935;28;20298;-86
2023/04/18 12:38:37;;;;;;;10.30;8.00;;;13.50;99.90;;;;;;5076519;28;20172;-87
2023/04/18 12:41:02;;;;;;;9.87;7.90;;;13.80;99.90;;;;;;5076567;28;20184;-86
2023/04/18 12:43:28;;;;;;;10.43;8.63;;;13.70;99.90;;;;;;5076861;28;20227;-87
2023/04/18 12:45:54;;;;;;;9.50;7.93;;;13.60;99.90;;;;;;5076793;28;20245;-85
2023/04/18 12:48:19;;;;;;;9.50;8.47;;;13.40;99.90;;;;;;5076496;28;20172;-86
2023/04/18 12:50:45;;;;;;;10.00;7.97;;;13.30;1.00;;;;;;5099110;28;20176;-86
2023/04/18 12:53:10;;;;;;;10.57;8.40;;;13.30;1.00;;;;;;5087846;28;20191;-85